sensor_id;sensor_type;location;lat;lon;timestamp;temperature;humidity
24144;DHT22;12307;50.828;6.080;2023-04-25T00:01:39;19.70;55.90
24144;DHT22;12307;50.828;6.080;2023-04-25T00:04:05;19.70;55.90
24144;DHT22;12307;50.828;6.080;2023-04-25T00:06:34;19.80;56.00
24144;DHT22;12307;50.828;6.080;2023-04-25T00:09:01;19.70;55.90
24144;DHT22;12307;50.828;6.080;2023-04-25T00:11:27;19.70;55.90
24144;DHT22;12307;50.828;6.080;2023-04-25T00:13:54;19.70;55.90
24144;DHT22;12307;50.828;6.080;2023-04-25T00:16:20;19.70;55.90
24144;DHT22;12307;50.828;6.080;2023-04-25T00:18:45;19.70;55.90
24144;DHT22;12307;50.828;6.080;2023-04-25T00:21:17;19.70;55.90
24144;DHT22;12307;50.828;6.080;2023-04-25T00:23:43;19.70;55.90
24144;DHT22;12307;50.828;6.080;2023-04-25T00:26:11;19.70;55.90
24144;DHT22;12307;50.828;6.080;2023-04-25T00:28:37;19.70;55.90
24144;DHT22;12307;50.828;6.080;2023-04-25T00:31:04;19.70;55.90
24144;DHT22;12307;50.828;6.080;2023-04-25T00:33:30;19.70;55.90
24144;DHT22;12307;50.828;6.080;2023-04-25T00:35:55;19.70;55.90
24144;DHT22;12307;50.828;6.080;2023-04-25T00:38:21;19.70;55.90
24144;DHT22;12307;50.828;6.080;2023-04-25T00:40:47;19.70;55.90
24144;DHT22;12307;50.828;6.080;2023-04-25T00:43:13;19.70;55.90
24144;DHT22;12307;50.828;6.080;2023-04-25T00:45:39;19.70;55.90
24144;DHT22;12307;50.828;6.080;2023-04-25T00:48:06;19.70;55.90
24144;DHT22;12307;50.828;6.080;2023-04-25T00:50:33;19.70;55.90
24144;DHT22;12307;50.828;6.080;2023-04-25T00:53:00;19.70;55.90
24144;DHT22;12307;50.828;6.080;2023-04-25T00:55:26;19.70;55.90
24144;DHT22;12307;50.828;6.080;2023-04-25T00:57:52;19.70;55.90
24144;DHT22;12307;50.828;6.080;2023-04-25T01:00:19;19.70;55.90
24144;DHT22;12307;50.828;6.080;2023-04-25T01:02:45;19.70;55.90
24144;DHT22;12307;50.828;6.080;2023-04-25T01:05:13;19.70;55.90
24144;DHT22;12307;50.828;6.080;2023-04-25T01:07:38;19.70;55.90
24144;DHT22;12307;50.828;6.080;2023-04-25T01:10:06;19.70;55.90
24144;DHT22;12307;50.828;6.080;2023-04-25T01:12:31;19.70;56.00
24144;DHT22;12307;50.828;6.080;2023-04-25T01:14:57;19.60;55.90
24144;DHT22;12307;50.828;6.080;2023-04-25T01:17:23;19.60;55.90
24144;DHT22;12307;50.828;6.080;2023-04-25T01:19:49;19.60;55.90
24144;DHT22;12307;50.828;6.080;2023-04-25T01:22:17;19.70;55.90
24144;DHT22;12307;50.828;6.080;2023-04-25T01:24:43;19.60;55.90
24144;DHT22;12307;50.828;6.080;2023-04-25T01:27:09;19.60;55.90
24144;DHT22;12307;50.828;6.080;2023-04-25T01:29:36;19.60;55.90
24144;DHT22;12307;50.828;6.080;2023-04-25T01:32:02;19.60;55.90
24144;DHT22;12307;50.828;6.080;2023-04-25T01:34:28;19.60;55.90
24144;DHT22;12307;50.828;6.080;2023-04-25T01:36:54;19.60;55.90
24144;DHT22;12307;50.828;6.080;2023-04-25T01:39:21;19.60;55.90
24144;DHT22;12307;50.828;6.080;2023-04-25T01:41:47;19.60;55.90
24144;DHT22;12307;50.828;6.080;2023-04-25T01:44:13;19.60;55.90
24144;DHT22;12307;50.828;6.080;2023-04-25T01:46:39;19.60;55.90
24144;DHT22;12307;50.828;6.080;2023-04-25T01:49:04;19.60;55.90
24144;DHT22;12307;50.828;6.080;2023-04-25T01:51:30;19.60;55.90
24144;DHT22;12307;50.828;6.080;2023-04-25T01:53:57;19.60;55.90
24144;DHT22;12307;50.828;6.080;2023-04-25T01:56:25;19.60;55.90
24144;DHT22;12307;50.828;6.080;2023-04-25T01:58:51;19.60;55.90
24144;DHT22;12307;50.828;6.080;2023-04-25T02:01:17;19.60;55.90
24144;DHT22;12307;50.828;6.080;2023-04-25T02:03:43;19.60;55.90
24144;DHT22;12307;50.828;6.080;2023-04-25T02:06:08;19.60;55.90
24144;DHT22;12307;50.828;6.080;2023-04-25T02:08:34;19.60;56.00
24144;DHT22;12307;50.828;6.080;2023-04-25T02:11:00;19.60;56.00
24144;DHT22;12307;50.828;6.080;2023-04-25T02:13:27;19.60;56.00
24144;DHT22;12307;50.828;6.080;2023-04-25T02:15:53;19.60;56.00
24144;DHT22;12307;50.828;6.080;2023-04-25T02:18:18;19.60;55.90
24144;DHT22;12307;50.828;6.080;2023-04-25T02:20:45;19.60;55.90
24144;DHT22;12307;50.828;6.080;2023-04-25T02:23:11;19.60;55.90
24144;DHT22;12307;50.828;6.080;2023-04-25T02:25:37;19.60;55.90
24144;DHT22;12307;50.828;6.080;2023-04-25T02:28:03;19.60;56.00
24144;DHT22;12307;50.828;6.080;2023-04-25T02:30:30;19.60;56.00
24144;DHT22;12307;50.828;6.080;2023-04-25T02:32:55;19.60;56.00
24144;DHT22;12307;50.828;6.080;2023-04-25T02:35:21;19.60;56.00
24144;DHT22;12307;50.828;6.080;2023-04-25T02:37:47;19.60;56.00
24144;DHT22;12307;50.828;6.080;2023-04-25T02:40:13;19.60;56.00
24144;DHT22;12307;50.828;6.080;2023-04-25T02:42:39;19.60;56.00
24144;DHT22;12307;50.828;6.080;2023-04-25T02:45:05;19.60;56.00
24144;DHT22;12307;50.828;6.080;2023-04-25T02:47:32;19.60;56.00
24144;DHT22;12307;50.828;6.080;2023-04-25T02:49:58;19.60;56.00
24144;DHT22;12307;50.828;6.080;2023-04-25T02:52:24;19.60;56.00
24144;DHT22;12307;50.828;6.080;2023-04-25T02:54:50;19.60;56.00
24144;DHT22;12307;50.828;6.080;2023-04-25T02:57:16;19.60;56.00
24144;DHT22;12307;50.828;6.080;2023-04-25T02:59:42;19.60;56.00
24144;DHT22;12307;50.828;6.080;2023-04-25T03:02:08;19.60;56.00
24144;DHT22;12307;50.828;6.080;2023-04-25T03:04:35;19.60;56.00
24144;DHT22;12307;50.828;6.080;2023-04-25T03:07:01;19.60;56.00
24144;DHT22;12307;50.828;6.080;2023-04-25T03:09:27;19.60;56.00
24144;DHT22;12307;50.828;6.080;2023-04-25T03:11:52;19.60;56.00
24144;DHT22;12307;50.828;6.080;2023-04-25T03:14:18;19.60;56.00
24144;DHT22;12307;50.828;6.080;2023-04-25T03:16:44;19.60;56.00
24144;DHT22;12307;50.828;6.080;2023-04-25T03:19:10;19.50;56.00
24144;DHT22;12307;50.828;6.080;2023-04-25T03:21:37;19.50;56.00
24144;DHT22;12307;50.828;6.080;2023-04-25T03:24:04;19.50;56.00
24144;DHT22;12307;50.828;6.080;2023-04-25T03:26:30;19.60;56.00
24144;DHT22;12307;50.828;6.080;2023-04-25T03:28:56;19.50;56.60
24144;DHT22;12307;50.828;6.080;2023-04-25T03:31:21;19.60;56.00
24144;DHT22;12307;50.828;6.080;2023-04-25T03:33:47;19.50;56.00
24144;DHT22;12307;50.828;6.080;2023-04-25T03:36:13;19.50;56.00
24144;DHT22;12307;50.828;6.080;2023-04-25T03:38:40;19.50;56.00
24144;DHT22;12307;50.828;6.080;2023-04-25T03:41:07;19.50;56.00
24144;DHT22;12307;50.828;6.080;2023-04-25T03:43:33;19.50;56.00
24144;DHT22;12307;50.828;6.080;2023-04-25T03:45:59;19.50;56.00
24144;DHT22;12307;50.828;6.080;2023-04-25T03:48:25;19.50;56.00
24144;DHT22;12307;50.828;6.080;2023-04-25T03:50:51;19.50;56.00
24144;DHT22;12307;50.828;6.080;2023-04-25T03:53:17;19.50;56.00
24144;DHT22;12307;50.828;6.080;2023-04-25T03:55:44;19.50;56.00
24144;DHT22;12307;50.828;6.080;2023-04-25T03:58:10;19.50;56.00
24144;DHT22;12307;50.828;6.080;2023-04-25T04:00:36;19.50;56.00
24144;DHT22;12307;50.828;6.080;2023-04-25T04:03:02;19.50;56.00
24144;DHT22;12307;50.828;6.080;2023-04-25T04:05:27;19.50;56.00
24144;DHT22;12307;50.828;6.080;2023-04-25T04:07:53;19.50;56.00
24144;DHT22;12307;50.828;6.080;2023-04-25T04:10:20;19.50;56.00
24144;DHT22;12307;50.828;6.080;2023-04-25T04:12:47;19.50;56.00
24144;DHT22;12307;50.828;6.080;2023-04-25T04:15:12;19.50;56.00
24144;DHT22;12307;50.828;6.080;2023-04-25T04:17:38;19.50;56.00
24144;DHT22;12307;50.828;6.080;2023-04-25T04:20:05;19.50;56.00
24144;DHT22;12307;50.828;6.080;2023-04-25T04:22:31;19.50;56.00
24144;DHT22;12307;50.828;6.080;2023-04-25T04:24:57;19.50;56.00
24144;DHT22;12307;50.828;6.080;2023-04-25T04:27:23;19.50;56.00
24144;DHT22;12307;50.828;6.080;2023-04-25T04:29:50;19.50;56.00
24144;DHT22;12307;50.828;6.080;2023-04-25T04:32:18;19.50;56.00
24144;DHT22;12307;50.828;6.080;2023-04-25T04:34:44;19.50;56.00
24144;DHT22;12307;50.828;6.080;2023-04-25T04:37:10;19.50;56.00
24144;DHT22;12307;50.828;6.080;2023-04-25T04:39:38;19.50;56.00
24144;DHT22;12307;50.828;6.080;2023-04-25T04:42:04;19.50;56.00
24144;DHT22;12307;50.828;6.080;2023-04-25T04:44:30;19.50;56.00
24144;DHT22;12307;50.828;6.080;2023-04-25T04:47:01;19.50;56.00
24144;DHT22;12307;50.828;6.080;2023-04-25T04:49:27;19.50;56.00
24144;DHT22;12307;50.828;6.080;2023-04-25T04:51:53;19.50;56.00
24144;DHT22;12307;50.828;6.080;2023-04-25T04:54:20;19.50;56.00
24144;DHT22;12307;50.828;6.080;2023-04-25T04:56:45;19.50;56.00
24144;DHT22;12307;50.828;6.080;2023-04-25T04:59:11;19.50;56.00
24144;DHT22;12307;50.828;6.080;2023-04-25T05:01:37;19.50;55.90
24144;DHT22;12307;50.828;6.080;2023-04-25T05:04:04;19.50;55.90
24144;DHT22;12307;50.828;6.080;2023-04-25T05:06:31;19.50;55.90
24144;DHT22;12307;50.828;6.080;2023-04-25T05:08:57;19.50;55.90
24144;DHT22;12307;50.828;6.080;2023-04-25T05:11:23;19.50;55.90
24144;DHT22;12307;50.828;6.080;2023-04-25T05:13:49;19.50;55.90
24144;DHT22;12307;50.828;6.080;2023-04-25T05:16:15;19.50;55.80
24144;DHT22;12307;50.828;6.080;2023-04-25T05:18:41;19.50;55.80
24144;DHT22;12307;50.828;6.080;2023-04-25T05:21:08;19.50;55.80
24144;DHT22;12307;50.828;6.080;2023-04-25T05:23:34;19.60;55.80
24144;DHT22;12307;50.828;6.080;2023-04-25T05:26:00;19.50;55.80
24144;DHT22;12307;50.828;6.080;2023-04-25T05:28:26;19.60;55.80
24144;DHT22;12307;50.828;6.080;2023-04-25T05:30:52;19.60;55.80
24144;DHT22;12307;50.828;6.080;2023-04-25T05:33:17;19.60;55.80
24144;DHT22;12307;50.828;6.080;2023-04-25T05:35:43;19.60;55.80
24144;DHT22;12307;50.828;6.080;2023-04-25T05:38:10;19.60;55.70
24144;DHT22;12307;50.828;6.080;2023-04-25T05:40:36;19.60;55.70
24144;DHT22;12307;50.828;6.080;2023-04-25T05:43:02;19.60;55.70
24144;DHT22;12307;50.828;6.080;2023-04-25T05:45:28;19.60;55.70
24144;DHT22;12307;50.828;6.080;2023-04-25T05:47:53;19.60;55.70
24144;DHT22;12307;50.828;6.080;2023-04-25T05:50:19;19.60;55.70
24144;DHT22;12307;50.828;6.080;2023-04-25T05:52:45;19.70;55.70
24144;DHT22;12307;50.828;6.080;2023-04-25T05:55:12;19.70;55.60
24144;DHT22;12307;50.828;6.080;2023-04-25T05:57:39;19.70;55.60
24144;DHT22;12307;50.828;6.080;2023-04-25T06:00:07;19.70;55.50
24144;DHT22;12307;50.828;6.080;2023-04-25T06:02:34;19.70;55.50
24144;DHT22;12307;50.828;6.080;2023-04-25T06:05:00;19.70;55.40
24144;DHT22;12307;50.828;6.080;2023-04-25T06:07:28;19.80;55.40
24144;DHT22;12307;50.828;6.080;2023-04-25T06:09:56;19.80;55.30
24144;DHT22;12307;50.828;6.080;2023-04-25T06:12:24;19.80;55.30
24144;DHT22;12307;50.828;6.080;2023-04-25T06:14:49;19.80;55.30
24144;DHT22;12307;50.828;6.080;2023-04-25T06:17:15;19.90;55.40
24144;DHT22;12307;50.828;6.080;2023-04-25T06:19:41;19.90;55.40
24144;DHT22;12307;50.828;6.080;2023-04-25T06:22:07;19.90;55.40
24144;DHT22;12307;50.828;6.080;2023-04-25T06:24:33;19.90;55.40
24144;DHT22;12307;50.828;6.080;2023-04-25T06:26:59;19.90;55.30
24144;DHT22;12307;50.828;6.080;2023-04-25T06:29:26;19.90;55.30
24144;DHT22;12307;50.828;6.080;2023-04-25T06:31:52;19.90;55.20
24144;DHT22;12307;50.828;6.080;2023-04-25T06:34:18;20.00;55.40
24144;DHT22;12307;50.828;6.080;2023-04-25T06:36:43;20.00;55.40
24144;DHT22;12307;50.828;6.080;2023-04-25T06:39:10;20.00;55.30
24144;DHT22;12307;50.828;6.080;2023-04-25T06:41:36;19.90;55.30
24144;DHT22;12307;50.828;6.080;2023-04-25T06:44:01;20.00;55.40
24144;DHT22;12307;50.828;6.080;2023-04-25T06:46:29;20.00;55.40
24144;DHT22;12307;50.828;6.080;2023-04-25T06:48:54;20.00;55.40
24144;DHT22;12307;50.828;6.080;2023-04-25T06:51:20;20.00;55.40
24144;DHT22;12307;50.828;6.080;2023-04-25T06:53:46;20.00;55.40
24144;DHT22;12307;50.828;6.080;2023-04-25T06:56:12;20.00;55.40
24144;DHT22;12307;50.828;6.080;2023-04-25T06:58:37;20.00;55.40
24144;DHT22;12307;50.828;6.080;2023-04-25T07:01:03;20.00;55.40
24144;DHT22;12307;50.828;6.080;2023-04-25T07:03:30;20.00;55.50
24144;DHT22;12307;50.828;6.080;2023-04-25T07:05:56;20.00;56.10
24144;DHT22;12307;50.828;6.080;2023-04-25T07:08:22;20.00;55.50
24144;DHT22;12307;50.828;6.080;2023-04-25T07:10:47;20.00;55.50
24144;DHT22;12307;50.828;6.080;2023-04-25T07:13:13;20.00;55.50
24144;DHT22;12307;50.828;6.080;2023-04-25T07:15:39;20.00;55.50
24144;DHT22;12307;50.828;6.080;2023-04-25T07:18:05;20.10;55.60
24144;DHT22;12307;50.828;6.080;2023-04-25T07:20:32;20.10;55.60
24144;DHT22;12307;50.828;6.080;2023-04-25T07:22:58;20.10;55.60
24144;DHT22;12307;50.828;6.080;2023-04-25T07:25:24;20.10;55.60
24144;DHT22;12307;50.828;6.080;2023-04-25T07:27:50;20.10;56.20
24144;DHT22;12307;50.828;6.080;2023-04-25T07:30:16;20.20;55.60
24144;DHT22;12307;50.828;6.080;2023-04-25T07:32:41;20.10;55.50
24144;DHT22;12307;50.828;6.080;2023-04-25T07:35:08;20.20;55.60
24144;DHT22;12307;50.828;6.080;2023-04-25T07:37:35;20.20;55.60
24144;DHT22;12307;50.828;6.080;2023-04-25T07:40:01;20.20;55.60
24144;DHT22;12307;50.828;6.080;2023-04-25T07:42:29;20.20;55.60
24144;DHT22;12307;50.828;6.080;2023-04-25T07:44:55;20.20;55.60
24144;DHT22;12307;50.828;6.080;2023-04-25T07:47:21;20.20;55.60
24144;DHT22;12307;50.828;6.080;2023-04-25T07:49:47;20.20;55.60
24144;DHT22;12307;50.828;6.080;2023-04-25T07:52:13;20.20;55.60
24144;DHT22;12307;50.828;6.080;2023-04-25T07:54:40;20.20;55.60
24144;DHT22;12307;50.828;6.080;2023-04-25T07:57:05;20.30;55.50
24144;DHT22;12307;50.828;6.080;2023-04-25T07:59:32;20.30;55.50
24144;DHT22;12307;50.828;6.080;2023-04-25T08:01:57;20.30;55.50
24144;DHT22;12307;50.828;6.080;2023-04-25T08:04:23;20.40;55.50
24144;DHT22;12307;50.828;6.080;2023-04-25T08:06:49;20.40;55.50
24144;DHT22;12307;50.828;6.080;2023-04-25T08:09:15;20.40;55.50
24144;DHT22;12307;50.828;6.080;2023-04-25T08:11:42;20.40;55.50
24144;DHT22;12307;50.828;6.080;2023-04-25T08:14:08;20.40;55.50
24144;DHT22;12307;50.828;6.080;2023-04-25T08:16:34;20.40;55.50
24144;DHT22;12307;50.828;6.080;2023-04-25T08:19:02;20.40;55.50
24144;DHT22;12307;50.828;6.080;2023-04-25T08:21:27;20.50;55.40
24144;DHT22;12307;50.828;6.080;2023-04-25T08:23:53;20.50;55.40
24144;DHT22;12307;50.828;6.080;2023-04-25T08:26:19;20.50;55.30
24144;DHT22;12307;50.828;6.080;2023-04-25T08:28:46;20.50;55.30
24144;DHT22;12307;50.828;6.080;2023-04-25T08:31:12;20.50;55.20
24144;DHT22;12307;50.828;6.080;2023-04-25T08:33:38;20.60;55.30
24144;DHT22;12307;50.828;6.080;2023-04-25T08:36:04;20.70;55.30
24144;DHT22;12307;50.828;6.080;2023-04-25T08:38:29;20.80;55.10
24144;DHT22;12307;50.828;6.080;2023-04-25T08:40:56;20.90;55.00
24144;DHT22;12307;50.828;6.080;2023-04-25T08:43:25;21.00;54.90
24144;DHT22;12307;50.828;6.080;2023-04-25T08:45:53;21.10;54.70
24144;DHT22;12307;50.828;6.080;2023-04-25T08:48:19;21.20;54.50
24144;DHT22;12307;50.828;6.080;2023-04-25T08:50:49;21.40;54.30
24144;DHT22;12307;50.828;6.080;2023-04-25T08:53:17;21.60;54.10
24144;DHT22;12307;50.828;6.080;2023-04-25T08:55:46;21.80;53.90
24144;DHT22;12307;50.828;6.080;2023-04-25T08:58:14;21.90;53.70
24144;DHT22;12307;50.828;6.080;2023-04-25T09:00:40;22.10;53.60
24144;DHT22;12307;50.828;6.080;2023-04-25T09:03:07;22.30;53.40
24144;DHT22;12307;50.828;6.080;2023-04-25T09:05:34;22.50;53.10
24144;DHT22;12307;50.828;6.080;2023-04-25T09:08:00;22.60;52.90
24144;DHT22;12307;50.828;6.080;2023-04-25T09:10:26;22.60;52.90
24144;DHT22;12307;50.828;6.080;2023-04-25T09:13:02;22.60;52.90
24144;DHT22;12307;50.828;6.080;2023-04-25T09:15:29;22.50;53.10
24144;DHT22;12307;50.828;6.080;2023-04-25T09:17:55;22.30;53.20
24144;DHT22;12307;50.828;6.080;2023-04-25T09:20:22;22.20;53.40
24144;DHT22;12307;50.828;6.080;2023-04-25T09:23:01;22.10;53.60
24144;DHT22;12307;50.828;6.080;2023-04-25T09:25:34;22.00;53.60
24144;DHT22;12307;50.828;6.080;2023-04-25T09:28:04;21.90;53.80
24144;DHT22;12307;50.828;6.080;2023-04-25T09:30:31;21.80;53.90
24144;DHT22;12307;50.828;6.080;2023-04-25T09:32:57;21.70;54.00
24144;DHT22;12307;50.828;6.080;2023-04-25T09:35:35;21.60;54.00
24144;DHT22;12307;50.828;6.080;2023-04-25T09:38:01;21.50;54.10
24144;DHT22;12307;50.828;6.080;2023-04-25T09:40:32;21.40;54.20
24144;DHT22;12307;50.828;6.080;2023-04-25T09:42:58;21.30;54.30
24144;DHT22;12307;50.828;6.080;2023-04-25T09:45:24;21.20;54.40
24144;DHT22;12307;50.828;6.080;2023-04-25T09:47:50;21.10;54.50
24144;DHT22;12307;50.828;6.080;2023-04-25T09:50:20;21.10;54.60
24144;DHT22;12307;50.828;6.080;2023-04-25T09:53:02;21.10;54.60
24144;DHT22;12307;50.828;6.080;2023-04-25T09:55:28;21.00;54.70
24144;DHT22;12307;50.828;6.080;2023-04-25T09:57:56;21.00;54.70
24144;DHT22;12307;50.828;6.080;2023-04-25T10:00:24;20.90;54.70
24144;DHT22;12307;50.828;6.080;2023-04-25T10:02:50;20.90;54.80
24144;DHT22;12307;50.828;6.080;2023-04-25T10:05:17;20.90;54.80
24144;DHT22;12307;50.828;6.080;2023-04-25T10:07:44;20.90;54.90
24144;DHT22;12307;50.828;6.080;2023-04-25T10:10:12;20.90;54.90
24144;DHT22;12307;50.828;6.080;2023-04-25T10:12:38;20.90;54.90
24144;DHT22;12307;50.828;6.080;2023-04-25T10:15:06;20.90;54.80
24144;DHT22;12307;50.828;6.080;2023-04-25T10:17:34;21.00;54.80
24144;DHT22;12307;50.828;6.080;2023-04-25T10:20:10;21.30;54.60
24144;DHT22;12307;50.828;6.080;2023-04-25T10:22:37;21.70;54.10
24144;DHT22;12307;50.828;6.080;2023-04-25T10:25:05;21.90;53.70
24144;DHT22;12307;50.828;6.080;2023-04-25T10:27:32;22.20;53.40
24144;DHT22;12307;50.828;6.080;2023-04-25T10:30:01;22.50;53.00
24144;DHT22;12307;50.828;6.080;2023-04-25T10:32:30;22.90;52.50
24144;DHT22;12307;50.828;6.080;2023-04-25T10:34:56;23.00;52.10
24144;DHT22;12307;50.828;6.080;2023-04-25T10:37:24;23.10;52.10
24144;DHT22;12307;50.828;6.080;2023-04-25T10:39:50;23.00;52.20
24144;DHT22;12307;50.828;6.080;2023-04-25T10:42:15;22.80;52.40
24144;DHT22;12307;50.828;6.080;2023-04-25T10:45:01;22.80;52.50
24144;DHT22;12307;50.828;6.080;2023-04-25T10:47:35;22.90;52.20
24144;DHT22;12307;50.828;6.080;2023-04-25T10:50:05;23.30;51.80
24144;DHT22;12307;50.828;6.080;2023-04-25T10:52:33;23.90;51.20
24144;DHT22;12307;50.828;6.080;2023-04-25T10:54:59;24.50;50.60
24144;DHT22;12307;50.828;6.080;2023-04-25T10:57:32;25.00;50.00
24144;DHT22;12307;50.828;6.080;2023-04-25T11:00:05;25.40;49.50
24144;DHT22;12307;50.828;6.080;2023-04-25T11:02:32;25.50;49.30
24144;DHT22;12307;50.828;6.080;2023-04-25T11:05:02;25.50;49.20
24144;DHT22;12307;50.828;6.080;2023-04-25T11:07:37;25.30;49.40
24144;DHT22;12307;50.828;6.080;2023-04-25T11:10:04;25.00;49.80
24144;DHT22;12307;50.828;6.080;2023-04-25T11:12:30;24.70;50.30
24144;DHT22;12307;50.828;6.080;2023-04-25T11:15:03;24.30;50.60
24144;DHT22;12307;50.828;6.080;2023-04-25T11:17:29;24.00;51.10
24144;DHT22;12307;50.828;6.080;2023-04-25T11:19:55;23.60;51.40
24144;DHT22;12307;50.828;6.080;2023-04-25T11:22:22;23.30;51.70
24144;DHT22;12307;50.828;6.080;2023-04-25T11:24:49;23.10;52.10
24144;DHT22;12307;50.828;6.080;2023-04-25T11:27:16;22.80;52.30
24144;DHT22;12307;50.828;6.080;2023-04-25T11:29:42;22.60;52.50
24144;DHT22;12307;50.828;6.080;2023-04-25T11:32:08;22.50;52.80
24144;DHT22;12307;50.828;6.080;2023-04-25T11:34:33;22.20;52.90
24144;DHT22;12307;50.828;6.080;2023-04-25T11:37:00;22.10;53.00
24144;DHT22;12307;50.828;6.080;2023-04-25T11:39:26;22.00;53.20
24144;DHT22;12307;50.828;6.080;2023-04-25T11:41:54;21.90;53.40
24144;DHT22;12307;50.828;6.080;2023-04-25T11:44:21;21.80;53.40
24144;DHT22;12307;50.828;6.080;2023-04-25T11:46:47;21.70;53.50
24144;DHT22;12307;50.828;6.080;2023-04-25T11:49:13;21.60;53.60
24144;DHT22;12307;50.828;6.080;2023-04-25T11:51:39;21.50;53.60
24144;DHT22;12307;50.828;6.080;2023-04-25T11:54:05;21.50;53.80
24144;DHT22;12307;50.828;6.080;2023-04-25T11:56:31;21.40;53.80
24144;DHT22;12307;50.828;6.080;2023-04-25T11:59:01;21.40;53.90
24144;DHT22;12307;50.828;6.080;2023-04-25T12:01:28;21.40;54.00
24144;DHT22;12307;50.828;6.080;2023-04-25T12:03:54;21.40;54.00
24144;DHT22;12307;50.828;6.080;2023-04-25T12:06:20;21.30;53.90
24144;DHT22;12307;50.828;6.080;2023-04-25T12:08:59;21.40;54.00
24144;DHT22;12307;50.828;6.080;2023-04-25T12:11:25;21.40;54.00
24144;DHT22;12307;50.828;6.080;2023-04-25T12:13:52;21.40;54.00
24144;DHT22;12307;50.828;6.080;2023-04-25T12:16:20;21.40;54.00
24144;DHT22;12307;50.828;6.080;2023-04-25T12:18:45;21.50;53.90
24144;DHT22;12307;50.828;6.080;2023-04-25T12:21:11;21.50;53.80
24144;DHT22;12307;50.828;6.080;2023-04-25T12:23:38;21.70;53.70
24144;DHT22;12307;50.828;6.080;2023-04-25T12:26:04;22.00;53.60
24144;DHT22;12307;50.828;6.080;2023-04-25T12:28:32;22.40;53.30
24144;DHT22;12307;50.828;6.080;2023-04-25T12:30:59;22.70;53.00
24144;DHT22;12307;50.828;6.080;2023-04-25T12:33:28;23.00;52.80
24144;DHT22;12307;50.828;6.080;2023-04-25T12:35:54;23.10;52.50
24144;DHT22;12307;50.828;6.080;2023-04-25T12:38:24;23.30;52.40
24144;DHT22;12307;50.828;6.080;2023-04-25T12:40:50;23.40;52.10
24144;DHT22;12307;50.828;6.080;2023-04-25T12:43:16;23.50;51.90
24144;DHT22;12307;50.828;6.080;2023-04-25T12:45:43;23.60;51.70
24144;DHT22;12307;50.828;6.080;2023-04-25T12:48:09;23.60;51.70
24144;DHT22;12307;50.828;6.080;2023-04-25T12:50:36;23.60;51.60
24144;DHT22;12307;50.828;6.080;2023-04-25T12:53:02;23.50;51.60
24144;DHT22;12307;50.828;6.080;2023-04-25T12:55:28;23.50;51.60
24144;DHT22;12307;50.828;6.080;2023-04-25T12:57:53;23.40;51.70
24144;DHT22;12307;50.828;6.080;2023-04-25T13:00:19;23.30;51.70
24144;DHT22;12307;50.828;6.080;2023-04-25T13:02:45;23.20;51.80
24144;DHT22;12307;50.828;6.080;2023-04-25T13:05:12;23.10;51.90
24144;DHT22;12307;50.828;6.080;2023-04-25T13:07:39;23.10;52.00
24144;DHT22;12307;50.828;6.080;2023-04-25T13:10:06;23.20;51.90
24144;DHT22;12307;50.828;6.080;2023-04-25T13:12:32;23.30;51.70
24144;DHT22;12307;50.828;6.080;2023-04-25T13:14:58;23.40;51.60
24144;DHT22;12307;50.828;6.080;2023-04-25T13:17:24;23.40;51.50
24144;DHT22;12307;50.828;6.080;2023-04-25T13:19:50;23.40;51.50
24144;DHT22;12307;50.828;6.080;2023-04-25T13:22:16;23.40;51.40
24144;DHT22;12307;50.828;6.080;2023-04-25T13:24:44;23.40;51.40
24144;DHT22;12307;50.828;6.080;2023-04-25T13:27:10;23.40;51.40
24144;DHT22;12307;50.828;6.080;2023-04-25T13:29:35;23.30;51.40
24144;DHT22;12307;50.828;6.080;2023-04-25T13:32:03;23.30;51.50
24144;DHT22;12307;50.828;6.080;2023-04-25T13:34:29;23.30;51.50
24144;DHT22;12307;50.828;6.080;2023-04-25T13:36:56;23.20;52.20
24144;DHT22;12307;50.828;6.080;2023-04-25T13:39:21;23.10;51.70
24144;DHT22;12307;50.828;6.080;2023-04-25T13:41:49;23.00;51.70
24144;DHT22;12307;50.828;6.080;2023-04-25T13:44:14;22.90;51.90
24144;DHT22;12307;50.828;6.080;2023-04-25T13:46:40;22.80;52.10
24144;DHT22;12307;50.828;6.080;2023-04-25T13:49:06;22.60;52.20
24144;DHT22;12307;50.828;6.080;2023-04-25T13:51:31;22.50;52.40
24144;DHT22;12307;50.828;6.080;2023-04-25T13:53:57;22.40;52.60
24144;DHT22;12307;50.828;6.080;2023-04-25T13:56:23;22.30;52.70
24144;DHT22;12307;50.828;6.080;2023-04-25T13:58:50;22.20;52.90
24144;DHT22;12307;50.828;6.080;2023-04-25T14:01:17;22.10;53.00
24144;DHT22;12307;50.828;6.080;2023-04-25T14:03:43;22.10;53.00
24144;DHT22;12307;50.828;6.080;2023-04-25T14:06:08;22.00;53.10
24144;DHT22;12307;50.828;6.080;2023-04-25T14:08:34;22.00;53.30
24144;DHT22;12307;50.828;6.080;2023-04-25T14:11:00;21.90;53.30
24144;DHT22;12307;50.828;6.080;2023-04-25T14:13:26;21.80;53.30
24144;DHT22;12307;50.828;6.080;2023-04-25T14:15:53;21.80;53.40
24144;DHT22;12307;50.828;6.080;2023-04-25T14:18:19;21.80;53.40
24144;DHT22;12307;50.828;6.080;2023-04-25T14:20:44;21.80;53.50
24144;DHT22;12307;50.828;6.080;2023-04-25T14:23:10;21.70;53.60
24144;DHT22;12307;50.828;6.080;2023-04-25T14:25:36;21.70;53.60
24144;DHT22;12307;50.828;6.080;2023-04-25T14:28:02;21.70;53.60
24144;DHT22;12307;50.828;6.080;2023-04-25T14:30:28;21.70;53.60
24144;DHT22;12307;50.828;6.080;2023-04-25T14:32:55;21.80;53.60
24144;DHT22;12307;50.828;6.080;2023-04-25T14:35:21;21.80;53.50
24144;DHT22;12307;50.828;6.080;2023-04-25T14:37:46;21.80;53.40
24144;DHT22;12307;50.828;6.080;2023-04-25T14:40:12;21.80;53.50
24144;DHT22;12307;50.828;6.080;2023-04-25T14:42:40;21.80;53.50
24144;DHT22;12307;50.828;6.080;2023-04-25T14:45:07;21.80;53.50
24144;DHT22;12307;50.828;6.080;2023-04-25T14:47:34;21.80;53.60
24144;DHT22;12307;50.828;6.080;2023-04-25T14:50:01;21.70;53.60
24144;DHT22;12307;50.828;6.080;2023-04-25T14:52:27;21.70;53.60
24144;DHT22;12307;50.828;6.080;2023-04-25T14:54:53;21.70;53.60
24144;DHT22;12307;50.828;6.080;2023-04-25T14:57:19;21.70;53.70
24144;DHT22;12307;50.828;6.080;2023-04-25T14:59:45;21.70;53.80
24144;DHT22;12307;50.828;6.080;2023-04-25T15:02:11;21.60;53.80
24144;DHT22;12307;50.828;6.080;2023-04-25T15:04:37;21.60;53.80
24144;DHT22;12307;50.828;6.080;2023-04-25T15:07:04;21.60;53.90
24144;DHT22;12307;50.828;6.080;2023-04-25T15:09:30;21.50;53.90
24144;DHT22;12307;50.828;6.080;2023-04-25T15:11:56;21.40;53.90
24144;DHT22;12307;50.828;6.080;2023-04-25T15:14:22;21.40;54.00
24144;DHT22;12307;50.828;6.080;2023-04-25T15:16:48;21.40;54.10
24144;DHT22;12307;50.828;6.080;2023-04-25T15:19:14;21.30;54.10
24144;DHT22;12307;50.828;6.080;2023-04-25T15:21:40;21.30;54.20
24144;DHT22;12307;50.828;6.080;2023-04-25T15:24:07;21.30;54.20
24144;DHT22;12307;50.828;6.080;2023-04-25T15:26:33;21.20;54.20